Buus, Carsten
United StatesManBorn 19672008 – 2020Runner id 66789
Events
55
2008 – 2020
Best pace
10.736
km/h · 2008
Best finish
24th
of 122 · 2011
Distance raced
3,183
km · splits not double-counted
Pace over time
km/h · higher is faster
Pace over time: 55 races from 2008 to 2020, ranging from 4.29 to 11.07 kilometres per hour, where higher is faster. A second, age-graded series is drawn above it; the gap between the two is the age credit.
- Actual pace
- Age-graded pace
Results
| Date | Event | Distance | Result | Pace km/h | Placing |
|---|---|---|---|---|---|
| 2008-10-20 | Baker Lake 50K Ultra Trail RunUnited States | 50km | 5:50:33 h | 8.558 | 25/86 |
| 2008-11-01 | Ron Herzog 50KUnited States | 50km | 5:09:00 h | 9.709 | 8/30 |
| 2008-11-29 | Ghost of Seattle MarathonUnited States | 50km | 4:39:26 h | 10.736 | 2/8 |
| 2009-01-10 | Bridle Trails Winter Running FestivalUnited States | 50km | 5:33:19 h | 9.000 | 27/50 |
| 2009-02-07 | Orcas Island 50kUnited States | 50km | 7:14:05 h | 6.911 | 68/106 |
| 2009-03-21 | Chuckanut 50KUnited States | 50km | 5:59:10 h | 8.353 | 125/270 |
| 2009-04-19 | 50km | 4:55:28 h | 10.153 | 17/66 | |
| 2009-05-16 | Watershed Preserve 12 Hr Trail RaceUnited States | 12h | 81.336 km | 6.778 | 31/66 |
| 2009-06-06 | 50km | 6:30:13 h | 7.688 | 50/106 | |
| 2010-03-20 | 50km | 5:57:45 h | 8.386 | 171/287 | |
| 2010-05-15 | 12h | 87.129 km | 7.261 | 25/80 | |
| 2010-10-02 | Baker Lake 50K Ultra Trail RunUnited States | 50km | 5:55:00 h | 8.451 | 34/115 |
| 2011-01-08 | Bridle Trails Winter Running FestivalUnited States | 50km | 5:26:07 h | 9.199 | 25/46 |
| 2011-02-05 | 50km | 7:55:38 h | 6.307 | 86/129 | |
| 2011-03-19 | 50km | 5:47:06 h | 8.643 | 122/298 | |
| 2011-04-30 | 50km | 5:42:35 h | 8.757 | 4/6 | |
| 2011-07-02 | Lord Hill Summer Trail RunUnited States | 50km | 6:28:55 h | 7.714 | 15/30 |
| 2011-07-30 | 50mi | 11:30:22 h | 6.993 | 164/244 | |
| 2011-10-01 | 50km | 5:54:24 h | 8.465 | 24/122 | |
| 2011-12-10 | 50km | 5:55:19 h | 8.443 | 29/63 | |
| 2012-02-04 | 50km | 6:53:57 h | 7.247 | 80/171 | |
| 2012-03-17 | 50km | 6:27:09 h | 7.749 | 345/550 | |
| 2012-04-21 | 100km | 15:11:00 h | 6.586 | 3/5 | |
| 2012-05-12 | 50km | 7:29:54 h | 6.668 | 28/48 | |
| 2012-06-02 | 50mi | 9:39:04 h | 8.338 | 25/68 | |
| 2012-07-07 | 50km | 6:11:41 h | 8.071 | 9/28 | |
| 2012-07-28 | 50mi | 11:22:10 h | 7.077 | 188/275 | |
| 2012-08-25 | 100mi | 29:41:41 h | 5.420 | 65/98 | |
| 2012-10-06 | 50km | 5:58:21 h | 8.372 | 31/116 | |
| 2012-12-08 | 50km | 6:16:19 h | 7.972 | 44/86 | |
| 2013-01-13 | Bridle Trails Winter Running FestivalUnited States | 50km | 5:23:15 h | 9.281 | 27/55 |
| 2013-02-02 | 50km | 7:34:06 h | 6.606 | 149/215 | |
| 2013-03-23 | 12h | 51.499 km | 4.292 | 41/74 | |
| 2013-04-13 | Lumberjack Endurance 100 Mile RunUnited States | 100mi | 28:10:00 h | 5.714 | 9/13 |
| 2013-05-19 | 50km | 6:02:01 h | 8.287 | 61/101 | |
| 2013-09-07 | Volcanic 50United States | 50km | 9:31:28 h | 5.250 | 75/118 |
| 2013-12-14 | 50km | 6:50:06 h | 7.315 | 127/183 | |
| 2014-02-01 | 50km | 7:24:51 h | 6.744 | 125/200 | |
| 2014-04-20 | 50km | 8:11:52 h | 6.099 | 67/107 | |
| 2014-09-06 | 50km | 10:17:14 h | 4.860 | 121/192 | |
| 2015-01-10 | 50km | 7:13:54 h | 6.914 | 46/50 | |
| 2016-12-10 | 50km | 6:47:41 h | 7.359 | 136/191 | |
| 2017-01-14 | 50km | 5:31:05 h | 9.061 | 24/59 | |
| 2017-04-22 | 50km | 9:25:20 h | 5.307 | 112/120 | |
| 2017-12-16 | 50km | 5:11:39 h | 9.626 | 15/27 | |
| 2018-01-13 | Bridle Trails Winter Running FestivalUnited States | 50km | 5:40:50 h | 8.802 | 27/62 |
| 2018-02-03 | 50km | 7:53:46 h | 6.332 | 125/180 | |
| 2018-04-21 | 50km | 8:48:52 h | 5.673 | 155/182 | |
| 2018-12-08 | 50km | 6:06:21 h | 8.189 | 111/193 | |
| 2019-01-12 | 50km | 5:23:35 h | 9.271 | 31/77 |
Showing 1–50 of 55